Terminal Aerodrome Forecast
Issued by NWS

Home | Current Version | Previous Version | Text Only | Print | Product List | Glossary On
Versions: 1 2 3 4 5 6 7 8 9 10 11 12 13
000
FTUS45 KVEF 182300
TAFVGT
TAF
KVGT 182320Z 1900/1924 16011G18KT P6SM FEW100 BKN150 OVC200
     FM190300 18008KT P6SM SCT100 BKN150
     FM191100 VRB05KT P6SM SCT100 BKN150
     FM191900 15006KT P6SM SCT100 SCT150=

USA.gov is the U.S. government's official web portal to all federal, state and local government web resources and services.